Time;durP1;ratioP1;P1;durP2;ratioP2;P2;SDS_P1;SDS_P2;PMS_P1;PMS_P2;Temp;Humidity;BMP_temperature;BMP_pressure;BME280_temperature;BME280_humidity;BME280_pressure;Samples;Min_cycle;Max_cycle;Signal;HPM_P1;HPM_P2
2022/06/07 00:00:58;;;;;;;10.53;3.75;;;;;;;15.68;71.22;101248.88;1719267;83;27585;-56
2022/06/07 00:03:26;;;;;;;6.72;3.55;;;;;;;15.67;71.12;101255.30;1719396;81;25636;-56
2022/06/07 00:05:53;;;;;;;7.22;2.98;;;;;;;15.64;71.37;101241.04;1719313;83;25760;-56
2022/06/07 00:08:20;;;;;;;10.60;3.77;;;;;;;15.61;71.43;101246.80;1719430;83;25713;-56
2022/06/07 00:10:49;;;;;;;4.72;3.10;;;;;;;15.59;71.39;101247.45;1719248;83;25819;-56
2022/06/07 00:13:17;;;;;;;9.05;2.98;;;;;;;15.58;71.48;101242.20;1719317;83;27623;-56
2022/06/07 00:15:45;;;;;;;17.00;3.25;;;;;;;15.59;71.67;101242.55;1719220;83;25774;-56
2022/06/07 00:18:13;;;;;;;6.28;3.40;;;;;;;15.59;71.71;101242.55;1719223;83;25815;-56
2022/06/07 00:20:41;;;;;;;12.43;3.25;;;;;;;15.59;71.71;101239.84;1719192;83;25947;-57
2022/06/07 00:23:13;;;;;;;20.68;4.90;;;;;;;15.57;71.46;101233.20;1719171;83;25835;-56
2022/06/07 00:25:44;;;;;;;9.05;3.40;;;;;;;15.55;71.46;101229.81;1719245;83;27508;-56
2022/06/07 00:28:13;;;;;;;14.40;3.75;;;;;;;15.53;71.43;101225.05;1719014;83;25819;-56
2022/06/07 00:30:40;;;;;;;9.38;3.50;;;;;;;15.50;71.37;101228.06;1719654;83;25767;-56
2022/06/07 00:33:08;;;;;;;7.53;3.40;;;;;;;15.48;71.30;101230.08;1719083;83;25831;-56
2022/06/07 00:35:35;;;;;;;9.50;3.47;;;;;;;15.43;71.40;101233.25;1721683;83;25444;-54
2022/06/07 00:38:03;;;;;;;13.05;3.65;;;;;;;15.41;71.24;101231.23;1719616;83;28733;-55
2022/06/07 00:40:30;;;;;;;6.40;3.47;;;;;;;15.39;71.31;101231.02;1719498;83;25768;-56
2022/06/07 00:42:57;;;;;;;13.90;3.42;;;;;;;15.36;71.36;101231.34;1719172;83;25704;-54
2022/06/07 00:45:24;;;;;;;14.50;3.42;;;;;;;15.28;72.70;101230.28;1719208;83;25869;-56
2022/06/07 00:47:51;;;;;;;12.63;3.92;;;;;;;15.17;72.60;101231.86;1729274;81;25710;-56
2022/06/07 00:50:45;;;;;;;11.48;3.37;;;;;;;15.13;72.70;101225.91;1725906;81;29545;-56
2022/06/07 00:53:26;;;;;;;7.20;3.62;;;;;;;15.14;72.91;101228.97;1734214;81;25960;-55
2022/06/07 00:55:55;;;;;;;10.32;3.58;;;;;;;15.12;72.60;101221.97;1719402;82;25448;-56
2022/06/07 00:58:26;;;;;;;5.75;3.37;;;;;;;15.09;73.14;101218.23;1754874;80;25916;-55
2022/06/07 01:00:54;;;;;;;11.15;3.47;;;;;;;15.01;72.72;101215.80;1755329;81;25768;-55
2022/06/07 01:03:22;;;;;;;13.22;4.20;;;;;;;14.97;72.74;101215.75;1754848;81;27464;-56
2022/06/07 01:05:53;;;;;;;6.08;3.55;;;;;;;14.93;72.76;101223.83;1725094;83;26366;-56
2022/06/07 01:11:11;;;;;;;7.45;3.42;;;;;;;14.90;73.08;101221.92;1725191;82;26025;-55
2022/06/07 01:13:38;;;;;;;8.55;4.00;;;;;;;14.85;72.98;101215.62;1754816;81;25723;-55
2022/06/07 01:16:10;;;;;;;15.83;3.95;;;;;;;14.83;73.00;101214.94;1718729;83;27436;-55
2022/06/07 01:18:39;;;;;;;7.37;4.20;;;;;;;14.81;72.91;101215.59;1745254;81;25446;-54
2022/06/07 01:21:32;;;;;;;15.30;3.95;;;;;;;14.80;72.76;101222.01;1746417;81;25747;-55
2022/06/07 01:24:00;;;;;;;8.03;3.52;;;;;;;14.79;72.88;101223.01;1746288;82;25802;-55
2022/06/07 01:26:29;;;;;;;12.30;4.37;;;;;;;14.78;73.10;101227.59;1745864;81;25758;-53
2022/06/07 01:28:58;;;;;;;10.23;3.70;;;;;;;14.79;73.16;101225.72;1733237;81;27518;-55
2022/06/07 01:31:26;;;;;;;18.32;4.20;;;;;;;14.73;73.30;101224.98;1723841;83;25632;-54
2022/06/07 01:33:54;;;;;;;9.13;3.83;;;;;;;14.66;73.01;101224.70;1723707;83;25744;-54
2022/06/07 01:36:21;;;;;;;10.80;4.00;;;;;;;14.62;73.11;101226.86;1742397;82;25913;-55
2022/06/07 01:41:53;;;;;;;11.45;3.80;;;;;;;14.65;73.30;101227.05;1742499;81;25795;-56
2022/06/07 01:44:02;;;;;;;7.25;3.80;;;;;;;14.67;73.32;101226.44;1719006;83;25745;-55
2022/06/07 01:46:30;;;;;;;10.93;3.83;;;;;;;14.67;73.22;101224.57;1719164;83;25539;-55
2022/06/07 01:48:58;;;;;;;13.98;4.22;;;;;;;14.68;73.53;101223.57;1719103;83;25839;-55
2022/06/07 01:51:25;;;;;;;19.87;4.30;;;;;;;14.69;73.48;101225.27;1719081;83;25789;-55
2022/06/07 01:53:52;;;;;;;8.33;4.05;;;;;;;14.67;73.48;101226.44;1719181;83;27534;-55
2022/06/07 01:56:20;;;;;;;13.48;3.95;;;;;;;14.62;73.31;101222.80;1719001;83;25821;-54
2022/06/07 01:58:48;;;;;;;12.47;4.30;;;;;;;14.62;73.40;101218.73;1718785;82;25695;-55
2022/06/07 02:01:15;;;;;;;8.18;3.65;;;;;;;14.56;73.53;101220.71;1719113;83;25833;-55
2022/06/07 02:03:43;;;;;;;7.22;3.62;;;;;;;14.51;73.97;101223.00;1719181;83;25791;-55
2022/06/07 02:06:12;;;;;;;12.53;4.47;;;;;;;14.49;73.72;101222.30;1719047;83;27470;-54
2022/06/07 02:08:41;;;;;;;6.62;3.60;;;;;;;14.50;74.18;101217.23;1719094;83;25788;-54
2022/06/07 02:11:25;;;;;;;8.30;3.70;;;;;;;14.47;74.10;101222.97;1719410;83;25740;-54
2022/06/07 02:13:55;;;;;;;12.18;4.00;;;;;;;14.45;74.18;101212.78;1718512;83;25714;-54
2022/06/07 02:16:23;;;;;;;4.12;3.30;;;;;;;14.44;74.21;101211.08;1719377;81;25780;-54
2022/06/07 02:18:50;;;;;;;8.38;3.40;;;;;;;14.46;74.05;101214.50;1698274;83;27496;-55
2022/06/07 02:21:22;;;;;;;9.65;4.20;;;;;;;14.47;74.07;101212.14;1739274;81;26034;-54
2022/06/07 02:23:50;;;;;;;11.57;3.60;;;;;;;14.49;74.03;101208.76;1718640;83;25808;-55
2022/06/07 02:26:31;;;;;;;8.20;3.58;;;;;;;14.50;73.96;101209.11;1721633;83;26447;-54
2022/06/07 02:29:02;;;;;;;10.60;3.67;;;;;;;14.50;73.81;101210.47;1719400;83;25928;-54
2022/06/07 02:31:32;;;;;;;10.50;3.40;;;;;;;14.48;73.71;101213.81;1698947;83;28238;-55
2022/06/07 02:34:02;;;;;;;8.40;3.40;;;;;;;14.48;73.59;101212.46;1719164;83;25787;-55
2022/06/07 02:36:31;;;;;;;10.55;3.67;;;;;;;14.49;73.71;101211.47;1719934;81;25793;-54
2022/06/07 02:38:59;;;;;;;8.73;3.50;;;;;;;14.50;73.84;101218.59;1719309;83;26691;-55
2022/06/07 02:41:28;;;;;;;6.72;3.40;;;;;;;14.52;73.99;101223.35;1719156;81;25666;-54
2022/06/07 02:43:55;;;;;;;9.43;3.75;;;;;;;14.53;73.90;101224.55;1719473;83;27438;-55
2022/06/07 02:46:23;;;;;;;10.35;3.83;;;;;;;14.53;73.90;101223.70;1718931;83;26164;-55
2022/06/07 02:48:50;;;;;;;10.82;3.70;;;;;;;14.51;73.73;101221.16;1709840;81;25906;-55
2022/06/07 02:51:17;;;;;;;7.25;3.40;;;;;;;14.51;73.76;101225.70;1733406;81;26584;-55
2022/06/07 02:53:45;;;;;;;8.50;3.65;;;;;;;14.52;73.85;101224.19;1754802;81;26197;-54
2022/06/07 02:56:12;;;;;;;9.83;4.03;;;;;;;14.49;73.67;101223.64;1754724;81;27459;-55
2022/06/07 02:58:39;;;;;;;4.70;3.10;;;;;;;14.49;73.70;101225.87;1754809;81;25738;-56
2022/06/07 03:01:07;;;;;;;8.13;3.62;;;;;;;14.48;73.76;101227.35;1754563;81;25694;-55
2022/06/07 03:03:38;;;;;;;10.38;3.65;;;;;;;14.47;73.65;101235.15;1754279;81;25805;-55
2022/06/07 03:06:07;;;;;;;8.00;3.27;;;;;;;14.45;73.62;101231.22;1754677;81;25791;-56
2022/06/07 03:08:34;;;;;;;5.40;3.92;;;;;;;14.47;73.75;101229.73;1755093;81;27506;-55
2022/06/07 03:11:03;;;;;;;7.67;3.45;;;;;;;14.48;73.72;101230.05;1754676;81;25775;-55
2022/06/07 03:13:30;;;;;;;10.58;3.85;;;;;;;14.51;73.78;101235.18;1754751;81;25709;-55
2022/06/07 03:15:57;;;;;;;5.75;3.70;;;;;;;14.48;73.69;101232.28;1754824;81;25774;-55
2022/06/07 03:18:24;;;;;;;5.80;3.62;;;;;;;14.49;73.79;101242.59;1755061;81;25755;-55
2022/06/07 03:20:53;;;;;;;5.30;4.28;;;;;;;14.51;74.07;101238.77;1754729;81;28315;-56
2022/06/07 03:23:21;;;;;;;9.45;4.42;;;;;;;14.53;74.31;101241.30;1755038;81;25797;-55
2022/06/07 03:26:06;;;;;;;6.20;3.35;;;;;;;14.50;74.33;101242.47;1754525;81;25853;-55
2022/06/07 03:28:35;;;;;;;9.35;3.70;;;;;;;14.52;74.51;101242.30;1743026;81;25800;-54
2022/06/07 03:31:09;;;;;;;8.08;3.80;;;;;;;14.51;74.47;101241.95;1719254;83;25790;-55
2022/06/07 03:33:39;;;;;;;7.72;4.12;;;;;;;14.54;74.44;101238.95;1720099;83;27463;-55
2022/06/07 03:36:18;;;;;;;6.17;3.70;;;;;;;14.58;74.48;101238.98;1698976;83;25752;-55
2022/06/07 03:38:47;;;;;;;6.40;4.55;;;;;;;14.59;74.61;101240.69;1718874;83;25872;-53
2022/06/07 03:41:21;;;;;;;8.95;3.65;;;;;;;14.62;74.62;101233.63;1719205;83;25836;-55
2022/06/07 03:43:50;;;;;;;6.55;4.20;;;;;;;14.63;75.27;101235.34;1719635;83;25790;-54
2022/06/07 03:46:20;;;;;;;12.43;7.30;;;;;;;14.59;75.43;101239.34;1719143;83;27472;-53
2022/06/07 03:48:49;;;;;;;6.12;3.90;;;;;;;14.60;75.30;101231.56;1719199;83;25871;-55
2022/06/07 03:51:20;;;;;;;6.08;3.85;;;;;;;14.65;75.84;101233.82;1719256;83;25755;-55
2022/06/07 03:53:48;;;;;;;8.33;3.60;;;;;;;14.62;75.47;101230.92;1719426;83;25741;-55
2022/06/07 03:56:16;;;;;;;5.80;3.80;;;;;;;14.63;75.97;101227.22;1719289;83;25823;-55
2022/06/07 03:58:44;;;;;;;5.28;3.98;;;;;;;14.66;75.67;101230.98;1718096;81;27567;-56
2022/06/07 04:01:16;;;;;;;16.02;4.90;;;;;;;14.75;75.74;101238.72;1713016;83;25794;-55
2022/06/07 04:03:47;;;;;;;6.37;4.20;;;;;;;14.83;75.76;101227.13;1718940;83;25845;-54
2022/06/07 04:06:32;;;;;;;15.78;5.25;;;;;;;14.93;75.65;101231.11;1723253;83;25845;-55
2022/06/07 04:09:01;;;;;;;24.43;5.33;;;;;;;15.01;75.49;101224.42;1722238;83;25806;-55
2022/06/07 04:11:29;;;;;;;14.25;5.40;;;;;;;15.11;75.31;101214.84;1697567;83;27484;-55
2022/06/07 04:14:01;;;;;;;14.43;6.47;;;;;;;15.16;75.70;101210.66;1688100;83;25669;-55
2022/06/07 04:16:31;;;;;;;17.17;7.20;;;;;;;15.20;75.48;101213.91;1688740;84;25712;-55
2022/06/07 04:19:06;;;;;;;16.27;7.60;;;;;;;15.28;75.51;101216.72;1687987;84;26550;-55
2022/06/07 04:21:33;;;;;;;18.52;7.85;;;;;;;15.37;75.15;101212.73;1711847;83;26001;-55
2022/06/07 04:24:06;;;;;;;14.90;6.70;;;;;;;15.44;74.83;101217.86;1718269;83;27524;-53
2022/06/07 04:26:34;;;;;;;17.90;6.25;;;;;;;15.53;74.55;101214.69;1718963;83;25739;-55
2022/06/07 04:29:02;;;;;;;20.92;6.75;;;;;;;15.59;74.23;101213.56;1718518;83;25784;-54
2022/06/07 04:31:29;;;;;;;12.60;7.12;;;;;;;15.64;74.04;101213.92;1717642;83;25774;-55
2022/06/07 04:33:59;;;;;;;15.32;6.80;;;;;;;15.68;73.25;101214.48;1717244;83;25746;-55
2022/06/07 04:36:28;;;;;;;14.23;6.40;;;;;;;15.73;73.14;101210.77;1717350;83;28214;-55
2022/06/07 04:38:57;;;;;;;14.05;6.37;;;;;;;15.84;73.09;101210.20;1729781;82;26003;-55
2022/06/07 04:41:27;;;;;;;19.27;6.55;;;;;;;15.90;72.75;101206.34;1729820;82;25792;-56
2022/06/07 04:43:56;;;;;;;19.62;8.98;;;;;;;15.96;72.33;101206.18;1729977;82;25864;-56
2022/06/07 04:46:27;;;;;;;13.88;7.28;;;;;;;16.04;72.19;101205.38;1727449;81;26537;-54
2022/06/07 04:48:56;;;;;;;15.03;7.00;;;;;;;16.10;71.90;101205.59;1670596;84;27541;-56
2022/06/07 04:51:32;;;;;;;16.42;6.65;;;;;;;16.18;71.59;101204.77;1711327;82;25778;-54
2022/06/07 04:54:02;;;;;;;19.30;6.40;;;;;;;16.24;71.45;101205.98;1728537;82;25770;-55
2022/06/07 04:56:34;;;;;;;19.27;6.65;;;;;;;16.33;71.23;101204.16;1728899;82;25862;-56
2022/06/07 04:59:06;;;;;;;12.75;7.12;;;;;;;16.42;71.04;101216.77;1727588;82;25852;-55
2022/06/07 05:01:38;;;;;;;20.30;7.67;;;;;;;16.49;70.94;101215.08;1712810;82;27540;-56
2022/06/07 05:04:07;;;;;;;20.65;7.42;;;;;;;16.58;70.39;101224.96;1705232;82;26429;-55
2022/06/07 05:06:41;;;;;;;16.77;6.25;;;;;;;16.68;70.01;101221.25;1700133;82;25492;-56
2022/06/07 05:09:28;;;;;;;22.67;7.20;;;;;;;16.77;69.48;101220.27;1703142;81;26457;-55
2022/06/07 05:12:00;;;;;;;16.25;6.65;;;;;;;16.86;69.20;101222.47;1729636;81;26016;-55
2022/06/07 05:14:29;;;;;;;9.90;6.45;;;;;;;16.90;68.81;101219.25;1729252;82;27646;-55
2022/06/07 05:16:57;;;;;;;22.45;5.78;;;;;;;16.97;68.32;101219.48;1729560;81;25825;-54
2022/06/07 05:19:29;;;;;;;10.43;5.87;;;;;;;17.06;67.97;101228.51;1729531;82;25761;-55
2022/06/07 05:21:57;;;;;;;17.77;6.05;;;;;;;17.14;67.13;101220.84;1729029;82;25993;-56
2022/06/07 05:24:25;;;;;;;16.85;5.78;;;;;;;17.20;66.54;101221.56;1726686;82;25797;-55
2022/06/07 05:26:59;;;;;;;10.80;6.25;;;;;;;17.28;66.92;101217.97;1723155;83;28302;-56
2022/06/07 05:29:47;;;;;;;8.35;5.35;;;;;;;17.34;66.36;101218.67;1721392;82;26152;-55
2022/06/07 05:32:17;;;;;;;21.15;5.90;;;;;;;17.39;65.80;101223.08;1698617;82;25507;-56
2022/06/07 05:34:46;;;;;;;11.10;5.53;;;;;;;17.47;65.96;101225.80;1726677;82;26657;-55
2022/06/07 05:37:19;;;;;;;15.70;5.60;;;;;;;17.53;65.67;101233.27;1728633;83;26087;-55
2022/06/07 05:39:48;;;;;;;8.28;5.35;;;;;;;17.62;65.51;101235.97;1715433;83;27641;-55
2022/06/07 05:42:17;;;;;;;9.50;5.72;;;;;;;17.68;65.54;101231.23;1732652;82;25922;-56
2022/06/07 05:44:45;;;;;;;14.85;5.47;;;;;;;17.74;65.36;101235.97;1732764;81;25718;-55
2022/06/07 05:47:13;;;;;;;13.38;6.33;;;;;;;17.80;65.00;101232.55;1737667;82;25816;-56
2022/06/07 05:49:42;;;;;;;12.15;5.92;;;;;;;17.87;64.87;101231.88;1741381;82;25755;-55
2022/06/07 05:52:11;;;;;;;16.32;5.37;;;;;;;17.93;64.80;101234.73;1711470;83;28174;-55
2022/06/07 05:54:40;;;;;;;14.63;5.83;;;;;;;17.98;64.66;101235.61;1719054;83;25657;-55
2022/06/07 05:57:10;;;;;;;8.28;5.05;;;;;;;18.04;64.83;101234.93;1717540;83;25761;-55
2022/06/07 05:59:39;;;;;;;14.30;5.62;;;;;;;18.08;64.93;101228.62;1700351;83;25462;-55
2022/06/07 06:02:09;;;;;;;19.20;7.25;;;;;;;18.12;64.97;101226.73;1690315;83;25829;-55
2022/06/07 06:04:38;;;;;;;16.48;5.80;;;;;;;18.17;65.29;101226.70;1697693;83;27580;-54
2022/06/07 06:07:05;;;;;;;17.98;5.40;;;;;;;18.22;65.21;101226.52;1690253;83;25936;-55
2022/06/07 06:12:22;;;;;;;14.78;3.80;;;;;;;18.34;64.88;101228.34;1719041;83;25811;-54
2022/06/07 06:14:50;;;;;;;6.40;3.27;;;;;;;18.40;63.68;101227.66;1716755;83;25964;-55
2022/06/07 06:17:19;;;;;;;9.23;2.98;;;;;;;18.49;62.70;101219.45;1718998;83;27466;-53
2022/06/07 06:19:48;;;;;;;5.50;3.17;;;;;;;18.59;62.06;101214.63;1718723;83;26569;-55
2022/06/07 06:22:15;;;;;;;9.05;3.47;;;;;;;18.70;61.65;101214.73;1716946;83;25723;-55
2022/06/07 06:24:45;;;;;;;8.60;3.15;;;;;;;18.78;61.28;101207.34;1704525;83;26052;-55
2022/06/07 06:27:12;;;;;;;5.03;2.77;;;;;;;18.87;60.91;101211.41;1719471;82;25837;-55
2022/06/07 06:29:41;;;;;;;16.20;3.67;;;;;;;18.97;60.57;101208.47;1718912;83;27494;-54
2022/06/07 06:32:09;;;;;;;11.35;2.85;;;;;;;19.05;59.91;101209.23;1719493;83;25543;-56
2022/06/07 06:34:38;;;;;;;3.60;2.77;;;;;;;19.15;59.53;101206.78;1718933;83;25755;-56
2022/06/07 06:37:07;;;;;;;8.38;3.45;;;;;;;19.21;59.19;101199.26;1719180;83;25767;-56
2022/06/07 06:39:35;;;;;;;12.03;3.00;;;;;;;19.27;57.98;101200.41;1719171;82;26074;-55
2022/06/07 06:42:03;;;;;;;8.40;3.65;;;;;;;19.35;57.62;101201.70;1719443;82;28422;-55
2022/06/07 06:44:44;;;;;;;9.03;3.72;;;;;;;19.44;58.24;101196.50;1711799;83;25919;-56
2022/06/07 06:47:12;;;;;;;13.80;4.40;;;;;;;19.53;57.98;101198.12;1718479;83;25891;-56
2022/06/07 06:49:41;;;;;;;14.85;3.90;;;;;;;19.62;58.24;101196.68;1719182;83;25866;-56
2022/06/07 06:52:10;;;;;;;8.23;2.15;;;;;;;19.71;58.12;101193.67;1719111;83;25788;-56
2022/06/07 06:54:39;;;;;;;11.57;2.80;;;;;;;19.83;57.15;101194.05;1718495;83;27635;-57
2022/06/07 06:57:07;;;;;;;5.42;2.35;;;;;;;19.93;55.72;101191.09;1717612;83;25819;-56
2022/06/07 06:59:35;;;;;;;9.63;3.00;;;;;;;20.06;55.02;101196.39;1717465;83;25829;-56
2022/06/07 07:02:03;;;;;;;11.57;2.92;;;;;;;20.18;53.45;101195.72;1715104;83;26726;-56
2022/06/07 07:04:49;;;;;;;14.90;7.97;;;;;;;20.28;53.77;101189.98;1722608;82;25454;-55
2022/06/07 07:07:16;;;;;;;7.10;2.98;;;;;;;20.40;54.44;101194.44;1719404;82;28478;-56
2022/06/07 07:09:43;;;;;;;6.28;2.30;;;;;;;20.49;52.00;101191.06;1727780;81;25494;-56
2022/06/07 07:12:11;;;;;;;10.25;2.37;;;;;;;20.58;52.72;101189.91;1754533;81;25758;-56
2022/06/07 07:14:39;;;;;;;5.25;2.70;;;;;;;20.70;52.64;101193.52;1727765;81;25766;-56
2022/06/07 07:17:08;;;;;;;7.35;2.33;;;;;;;20.79;52.38;101191.02;1690582;83;25809;-56
2022/06/07 07:19:35;;;;;;;12.68;2.87;;;;;;;20.90;50.60;101193.25;1690654;83;27437;-56
2022/06/07 07:22:04;;;;;;;6.60;2.77;;;;;;;20.99;50.54;101190.38;1689965;83;25738;-56
2022/06/07 07:24:32;;;;;;;10.70;4.33;;;;;;;21.10;50.83;101183.86;1700697;83;25683;-55
2022/06/07 07:27:01;;;;;;;15.23;2.75;;;;;;;21.21;51.24;101174.27;1723375;83;26964;-55
2022/06/07 07:29:29;;;;;;;4.35;1.67;;;;;;;21.30;50.57;101176.86;1720416;83;26011;-55
2022/06/07 07:31:57;;;;;;;8.30;1.50;;;;;;;21.41;49.56;101174.46;1719060;83;27520;-55
2022/06/07 07:34:27;;;;;;;9.80;1.67;;;;;;;21.54;47.51;101171.48;1718571;83;25736;-57
2022/06/07 07:36:54;;;;;;;5.42;1.00;;;;;;;21.67;47.37;101174.36;1719155;83;25818;-55
2022/06/07 07:39:25;;;;;;;17.90;1.80;;;;;;;21.81;45.56;101171.19;1727431;82;25763;-55
2022/06/07 07:41:55;;;;;;;10.98;2.20;;;;;;;21.90;44.48;101169.12;1690601;83;25770;-56
2022/06/07 07:44:27;;;;;;;12.55;2.65;;;;;;;22.03;44.61;101173.31;1708056;82;28274;-56
2022/06/07 07:46:56;;;;;;;12.05;1.75;;;;;;;22.17;44.35;101175.59;1725779;81;25758;-55
2022/06/07 07:49:24;;;;;;;15.65;3.00;;;;;;;22.32;44.16;101175.97;1721803;83;25544;-56
2022/06/07 07:51:54;;;;;;;4.45;1.72;;;;;;;22.43;44.56;101173.19;1734426;82;25817;-55
2022/06/07 07:54:25;;;;;;;7.45;1.72;;;;;;;22.50;43.97;101174.91;1739776;81;25481;-56
2022/06/07 07:56:55;;;;;;;6.35;1.30;;;;;;;22.59;43.79;101167.33;1734116;82;28509;-55
2022/06/07 07:59:24;;;;;;;6.47;1.00;;;;;;;22.71;42.76;101173.08;1734431;81;25942;-55
2022/06/07 08:01:53;;;;;;;6.85;1.40;;;;;;;22.82;42.40;101175.19;1728110;82;25665;-55
2022/06/07 08:04:20;;;;;;;2.35;1.35;;;;;;;22.92;41.86;101168.45;1737811;81;25836;-55
2022/06/07 08:06:49;;;;;;;3.50;1.75;;;;;;;23.03;41.50;101178.81;1748820;81;25414;-55
2022/06/07 08:09:17;;;;;;;8.58;1.55;;;;;;;23.15;40.34;101173.55;1736900;82;27541;-55
2022/06/07 08:11:45;;;;;;;15.83;2.40;;;;;;;23.25;39.69;101167.69;1732461;82;25801;-55
2022/06/07 08:14:18;;;;;;;6.92;1.30;;;;;;;23.37;38.30;101172.02;1735065;81;25683;-55
2022/06/07 08:16:46;;;;;;;1.32;0.90;;;;;;;23.53;37.99;101177.61;1750650;81;25802;-55
2022/06/07 08:19:13;;;;;;;7.65;0.78;;;;;;;23.66;37.13;101165.22;1748876;82;25718;-55
2022/06/07 08:21:41;;;;;;;5.10;0.90;;;;;;;23.79;37.64;101169.83;1748635;82;27585;-55
2022/06/07 08:24:09;;;;;;;7.45;1.27;;;;;;;23.88;37.55;101163.59;1747127;82;26068;-55
2022/06/07 08:26:36;;;;;;;5.40;1.02;;;;;;;24.02;37.63;101158.94;1731938;82;25776;-55
2022/06/07 08:29:04;;;;;;;4.47;0.90;;;;;;;24.20;35.07;101165.09;1731216;82;26800;-55
2022/06/07 08:31:33;;;;;;;0.60;0.60;;;;;;;24.35;35.56;101171.16;1729815;81;27296;-55
2022/06/07 08:39:33;;;;;;;9.95;1.17;;;;;;;24.60;32.64;101164.91;1727283;82;25767;-56
2022/06/07 08:42:06;;;;;;;2.62;1.50;;;;;;;24.72;32.52;101158.20;1729503;82;25825;-54
2022/06/07 08:44:50;;;;;;;1.72;0.80;;;;;;;24.83;34.14;101156.09;1728011;81;25822;-55
2022/06/07 08:47:39;;;;;;;4.62;1.10;;;;;;;24.95;33.86;101157.62;1729254;82;27437;-55
2022/06/07 08:50:25;;;;;;;2.17;0.95;;;;;;;25.09;33.36;101156.13;1702144;82;25791;-55
2022/06/07 08:53:19;;;;;;;9.35;1.47;;;;;;;25.29;33.41;101154.07;1694055;83;25786;-55
2022/06/07 08:55:53;;;;;;;5.58;1.07;;;;;;;25.51;31.67;101150.92;1710344;83;34890;-56
2022/06/07 08:58:28;;;;;;;2.67;1.10;;;;;;;25.74;31.93;101157.14;1717268;83;25826;-56
2022/06/07 09:01:04;;;;;;;1.07;0.60;;;;;;;25.93;29.94;101154.41;1699817;83;29570;-56
2022/06/07 09:04:14;;;;;;;4.85;1.05;;;;;;;25.95;31.40;101152.27;1717278;83;25787;-56
2022/06/07 09:06:47;;;;;;;9.13;1.30;;;;;;;26.12;31.20;101149.78;1707985;83;25902;-56
2022/06/07 09:09:18;;;;;;;7.47;1.15;;;;;;;26.37;32.25;101139.16;1717639;81;26815;-57
2022/06/07 09:12:10;;;;;;;2.22;1.25;;;;;;;26.62;32.58;101145.92;1717624;82;25824;-57
2022/06/07 09:15:15;;;;;;;4.37;1.10;;;;;;;26.90;32.62;101138.10;1716647;83;27549;-56
2022/06/07 09:17:52;;;;;;;10.40;8.43;;;;;;;27.23;31.13;101141.70;1712794;83;26090;-56
2022/06/07 09:20:27;;;;;;;3.55;1.60;;;;;;;27.54;31.63;101130.56;1729459;82;25794;-57
2022/06/07 09:23:28;;;;;;;7.00;1.10;;;;;;;27.87;30.37;101127.16;1716023;83;25818;-56
2022/06/07 09:26:00;;;;;;;1.27;0.60;;;;;;;28.16;29.49;101123.06;1716251;83;25843;-56
2022/06/07 09:28:31;;;;;;;1.75;0.70;;;;;;;28.16;29.61;101118.09;1716014;83;27322;-56
2022/06/07 09:31:11;;;;;;;4.35;1.20;;;;;;;28.35;28.72;101120.11;1698473;83;25966;-56
2022/06/07 09:33:56;;;;;;;2.25;1.10;;;;;;;28.61;29.85;101116.43;1719412;83;25889;-56
2022/06/07 09:36:31;;;;;;;4.90;0.98;;;;;;;28.99;28.77;101109.37;1713542;83;26420;-56
2022/06/07 09:39:17;;;;;;;6.30;0.90;;;;;;;29.26;26.72;101104.00;1713350;83;25706;-56
2022/06/07 09:41:57;;;;;;;4.47;0.80;;;;;;;29.32;27.59;101099.38;1713374;83;27501;-57
2022/06/07 09:44:38;;;;;;;5.70;0.82;;;;;;;29.44;27.12;101101.51;1713420;83;25727;-56
2022/06/07 09:47:16;;;;;;;2.67;0.80;;;;;;;29.67;26.74;101092.13;1717907;81;25717;-56
2022/06/07 09:49:49;;;;;;;2.37;0.80;;;;;;;29.56;27.52;101091.69;1717582;82;25887;-56
2022/06/07 09:52:29;;;;;;;5.37;0.85;;;;;;;29.83;26.63;101092.31;1718818;82;25862;-56
2022/06/07 09:55:22;;;;;;;8.45;1.00;;;;;;;30.18;26.29;101091.09;1754862;80;27671;-56
2022/06/07 09:58:12;;;;;;;7.28;1.00;;;;;;;30.64;25.76;101088.52;1737917;80;25807;-56
2022/06/07 10:01:18;;;;;;;3.45;0.88;;;;;;;31.04;25.17;101089.41;1754621;81;25656;-56
2022/06/07 10:04:03;;;;;;;2.98;0.98;;;;;;;31.54;25.09;101079.48;1746588;82;26479;-56
2022/06/07 10:06:44;;;;;;;11.28;1.22;;;;;;;32.05;24.19;101088.59;1758545;81;26371;-56
2022/06/07 10:09:29;;;;;;;2.17;0.80;;;;;;;32.40;23.29;101087.06;1760538;80;27671;-56
2022/06/07 10:12:30;;;;;;;2.00;0.80;;;;;;;32.75;23.71;101084.03;1755342;81;25854;-56
2022/06/07 10:15:30;;;;;;;8.33;0.80;;;;;;;33.28;22.58;101080.63;1760678;81;25683;-56
2022/06/07 10:18:25;;;;;;;9.13;1.50;;;;;;;33.68;22.52;101076.09;1760763;80;25867;-56
2022/06/07 10:21:28;;;;;;;11.97;1.35;;;;;;;34.20;21.40;101080.03;1760733;81;25758;-56
2022/06/07 10:24:18;;;;;;;8.10;1.00;;;;;;;34.79;21.67;101070.67;1759906;81;27485;-56
2022/06/07 10:27:02;;;;;;;3.77;0.78;;;;;;;34.32;21.20;101065.17;1738883;81;25758;-56
2022/06/07 10:30:03;;;;;;;7.25;1.07;;;;;;;33.99;21.48;101065.65;1724262;82;25723;-56
2022/06/07 10:33:06;;;;;;;3.70;1.15;;;;;;;33.26;23.10;101060.02;1724783;83;26179;-56
2022/06/07 10:35:58;;;;;;;9.03;1.32;;;;;;;32.60;23.17;101053.37;1724682;83;33221;-56
2022/06/07 10:38:46;;;;;;;11.68;1.65;;;;;;;32.09;23.59;101054.13;1724834;83;27544;-55
2022/06/07 10:41:49;;;;;;;6.78;1.00;;;;;;;31.82;23.51;101050.99;1724745;83;25796;-56
2022/06/07 10:44:55;;;;;;;2.25;0.98;;;;;;;31.63;24.33;101046.42;1724685;83;25799;-56
2022/06/07 10:47:35;;;;;;;7.20;0.90;;;;;;;32.61;23.70;101052.25;1724783;81;26460;-56
2022/06/07 10:50:36;;;;;;;3.65;0.65;;;;;;;33.33;22.36;101038.84;1728281;82;25701;-56
2022/06/07 10:53:14;;;;;;;4.17;1.00;;;;;;;34.40;21.86;101034.41;1762957;79;28297;-56
2022/06/07 10:55:59;;;;;;;1.72;0.57;;;;;;;33.80;21.06;101032.51;1755057;81;25703;-56
2022/06/07 10:58:31;;;;;;;5.92;1.12;;;;;;;34.10;20.59;101023.15;1759962;81;25879;-56
2022/06/07 11:01:03;;;;;;;4.97;0.90;;;;;;;34.73;20.94;101026.33;1746591;82;35229;-56
2022/06/07 11:03:56;;;;;;;3.60;0.80;;;;;;;35.62;18.85;101020.08;1746733;82;25825;-56
2022/06/07 11:09:40;;;;;;;27.37;1.77;;;;;;;34.11;20.44;101025.39;1746347;82;25871;-56
2022/06/07 11:12:19;;;;;;;11.70;1.45;;;;;;;33.48;21.41;101008.69;1764854;81;25762;-55
2022/06/07 11:15:18;;;;;;;10.82;1.12;;;;;;;33.55;21.69;101017.00;1764299;80;26206;-56
2022/06/07 11:18:05;;;;;;;19.82;1.57;;;;;;;33.25;22.10;101005.38;1764695;81;25437;-55
2022/06/07 11:20:34;;;;;;;4.53;0.90;;;;;;;33.67;21.38;101007.47;1743222;80;27460;-56
2022/06/07 11:23:12;;;;;;;19.42;1.57;;;;;;;34.08;20.95;101010.61;1764580;81;26466;-56
2022/06/07 11:26:00;;;;;;;3.55;0.80;;;;;;;33.68;21.28;101010.53;1763782;80;25663;-56
2022/06/07 11:28:43;;;;;;;7.60;1.07;;;;;;;33.31;21.95;101004.23;1743701;80;25805;-56
2022/06/07 11:31:39;;;;;;;9.70;1.15;;;;;;;32.92;21.89;101002.95;1734960;82;27359;-56
2022/06/07 11:34:15;;;;;;;15.70;1.50;;;;;;;32.57;22.05;100994.89;1741553;82;46369;-56
2022/06/07 11:36:44;;;;;;;12.68;1.50;;;;;;;33.31;22.04;100991.69;1740986;82;25709;-56
2022/06/07 11:39:40;;;;;;;3.35;1.10;;;;;;;34.13;20.88;100993.81;1742577;82;25480;-56
2022/06/07 11:42:24;;;;;;;9.68;0.88;;;;;;;34.73;19.69;100985.81;1742345;82;25805;-56
2022/06/07 11:45:11;;;;;;;4.65;0.80;;;;;;;35.48;19.71;100986.41;1742517;81;25808;-56
2022/06/07 11:47:55;;;;;;;9.60;0.90;;;;;;;36.57;17.97;100985.62;1724936;83;27463;-56
2022/06/07 11:50:33;;;;;;;6.15;0.88;;;;;;;37.26;18.59;100982.06;1719401;83;25803;-56
2022/06/07 11:53:22;;;;;;;18.40;1.32;;;;;;;38.26;18.00;100977.58;1719327;83;25788;-56
2022/06/07 11:56:03;;;;;;;7.67;0.90;;;;;;;39.20;17.42;100977.34;1719233;81;25803;-56
2022/06/07 11:58:58;;;;;;;2.90;0.90;;;;;;;40.09;16.19;100971.55;1700491;83;25812;-57
2022/06/07 12:01:42;;;;;;;7.33;0.80;;;;;;;40.78;16.34;100970.36;1719182;83;27498;-56
2022/06/07 12:04:45;;;;;;;5.58;0.60;;;;;;;41.50;14.86;100973.34;1719115;83;25535;-56
2022/06/07 12:07:36;;;;;;;6.03;0.90;;;;;;;41.93;13.84;100968.52;1719182;83;25804;-56
2022/06/07 12:10:35;;;;;;;0.70;0.50;;;;;;;42.58;13.11;100963.80;1719240;83;25776;-56